Buckner, Kentucky
Current Conditions -  °F | °C
As of 2:53 PM on Wednesday 26 Nov 2014 (Local Time) from KLOU Reporting Station
Clear Clear  
Wind Chill: 43°   Ceiling: Unl
Heat Index: 43°   Visibility: 10mi
Dew Point: 28°   Wind: 0mph
Humidity: 56%   Direction: NA
Pressure: 30.05"   Gusts: NA
Location:  38.38°N, 85.44°W
Report Text: KLOU 261953Z 00000KT 10SM CLR 06/M02 A3005 RMK AO2 SLP177 T00611022
Loading
Personal Weather Stations






























Interactive Weather Map New forecast layout! Learn more

10-Day Weather Forecast

Advertisements
Track Severe Weather on mobile